sensor_id;sensor_type;location;lat;lon;timestamp;P1;durP1;ratioP1;P2;durP2;ratioP2
54368;SDS011;40266;52.434;17.056;2023-08-30T00:00:19;7.90;;;4.10;;
54368;SDS011;40266;52.434;17.056;2023-08-30T00:03:23;4.90;;;3.50;;
54368;SDS011;40266;52.434;17.056;2023-08-30T00:06:06;7.30;;;4.00;;
54368;SDS011;40266;52.434;17.056;2023-08-30T00:08:50;7.10;;;3.50;;
54368;SDS011;40266;52.434;17.056;2023-08-30T00:11:33;6.40;;;3.60;;
54368;SDS011;40266;52.434;17.056;2023-08-30T00:14:16;5.40;;;3.90;;
54368;SDS011;40266;52.434;17.056;2023-08-30T00:16:59;6.40;;;4.40;;
54368;SDS011;40266;52.434;17.056;2023-08-30T00:19:42;7.10;;;4.90;;
54368;SDS011;40266;52.434;17.056;2023-08-30T00:22:25;8.30;;;4.20;;
54368;SDS011;40266;52.434;17.056;2023-08-30T00:25:10;7.50;;;4.40;;
54368;SDS011;40266;52.434;17.056;2023-08-30T00:27:52;5.90;;;4.50;;
54368;SDS011;40266;52.434;17.056;2023-08-30T00:30:35;7.60;;;4.10;;
54368;SDS011;40266;52.434;17.056;2023-08-30T00:33:18;7.80;;;4.50;;
54368;SDS011;40266;52.434;17.056;2023-08-30T00:36:01;6.90;;;5.00;;
54368;SDS011;40266;52.434;17.056;2023-08-30T00:38:44;8.50;;;3.90;;
54368;SDS011;40266;52.434;17.056;2023-08-30T00:41:28;8.50;;;4.50;;
54368;SDS011;40266;52.434;17.056;2023-08-30T00:44:11;6.10;;;4.00;;
54368;SDS011;40266;52.434;17.056;2023-08-30T00:46:54;10.20;;;4.00;;
54368;SDS011;40266;52.434;17.056;2023-08-30T00:49:37;14.70;;;5.70;;
54368;SDS011;40266;52.434;17.056;2023-08-30T00:52:20;9.50;;;4.30;;
54368;SDS011;40266;52.434;17.056;2023-08-30T00:55:03;6.60;;;4.30;;
54368;SDS011;40266;52.434;17.056;2023-08-30T00:57:47;8.10;;;3.80;;
54368;SDS011;40266;52.434;17.056;2023-08-30T01:00:30;7.10;;;4.50;;
54368;SDS011;40266;52.434;17.056;2023-08-30T01:03:14;8.50;;;4.50;;
54368;SDS011;40266;52.434;17.056;2023-08-30T01:06:04;8.50;;;4.30;;
54368;SDS011;40266;52.434;17.056;2023-08-30T01:08:47;7.40;;;4.50;;
54368;SDS011;40266;52.434;17.056;2023-08-30T01:14:34;10.00;;;4.80;;
54368;SDS011;40266;52.434;17.056;2023-08-30T01:17:23;6.40;;;4.50;;
54368;SDS011;40266;52.434;17.056;2023-08-30T01:20:06;9.90;;;4.40;;
54368;SDS011;40266;52.434;17.056;2023-08-30T01:26:03;6.50;;;4.40;;
54368;SDS011;40266;52.434;17.056;2023-08-30T01:29:11;7.50;;;4.30;;
54368;SDS011;40266;52.434;17.056;2023-08-30T01:31:59;9.20;;;4.10;;
54368;SDS011;40266;52.434;17.056;2023-08-30T01:34:43;5.60;;;4.10;;
54368;SDS011;40266;52.434;17.056;2023-08-30T01:37:30;6.10;;;3.90;;
54368;SDS011;40266;52.434;17.056;2023-08-30T01:40:14;7.40;;;3.70;;
54368;SDS011;40266;52.434;17.056;2023-08-30T01:42:59;6.70;;;4.10;;
54368;SDS011;40266;52.434;17.056;2023-08-30T01:45:43;7.60;;;4.60;;
54368;SDS011;40266;52.434;17.056;2023-08-30T01:48:26;10.90;;;5.20;;
54368;SDS011;40266;52.434;17.056;2023-08-30T01:51:12;12.20;;;5.90;;
54368;SDS011;40266;52.434;17.056;2023-08-30T01:53:58;11.40;;;4.80;;
54368;SDS011;40266;52.434;17.056;2023-08-30T01:56:42;9.40;;;4.80;;
54368;SDS011;40266;52.434;17.056;2023-08-30T01:59:25;8.00;;;4.80;;
54368;SDS011;40266;52.434;17.056;2023-08-30T02:02:08;6.50;;;3.80;;
54368;SDS011;40266;52.434;17.056;2023-08-30T02:04:50;4.80;;;3.40;;
54368;SDS011;40266;52.434;17.056;2023-08-30T02:07:38;7.20;;;4.10;;
54368;SDS011;40266;52.434;17.056;2023-08-30T02:13:17;5.10;;;3.80;;
54368;SDS011;40266;52.434;17.056;2023-08-30T02:16:07;8.50;;;4.70;;
54368;SDS011;40266;52.434;17.056;2023-08-30T02:18:53;6.50;;;3.70;;
54368;SDS011;40266;52.434;17.056;2023-08-30T02:21:37;7.40;;;3.90;;
54368;SDS011;40266;52.434;17.056;2023-08-30T02:24:22;8.50;;;4.60;;
54368;SDS011;40266;52.434;17.056;2023-08-30T02:27:05;6.90;;;4.30;;
54368;SDS011;40266;52.434;17.056;2023-08-30T02:29:48;8.50;;;5.30;;
54368;SDS011;40266;52.434;17.056;2023-08-30T02:32:31;9.50;;;4.50;;
54368;SDS011;40266;52.434;17.056;2023-08-30T02:35:14;8.80;;;4.20;;
54368;SDS011;40266;52.434;17.056;2023-08-30T02:37:57;6.90;;;4.50;;
54368;SDS011;40266;52.434;17.056;2023-08-30T02:40:40;9.20;;;5.00;;
54368;SDS011;40266;52.434;17.056;2023-08-30T02:43:23;5.60;;;4.10;;
54368;SDS011;40266;52.434;17.056;2023-08-30T02:46:08;8.10;;;4.60;;
54368;SDS011;40266;52.434;17.056;2023-08-30T02:48:50;8.50;;;4.70;;
54368;SDS011;40266;52.434;17.056;2023-08-30T02:51:33;9.40;;;4.60;;
54368;SDS011;40266;52.434;17.056;2023-08-30T02:54:16;7.70;;;4.70;;
54368;SDS011;40266;52.434;17.056;2023-08-30T02:56:59;7.80;;;4.20;;
54368;SDS011;40266;52.434;17.056;2023-08-30T02:59:42;8.80;;;5.00;;
54368;SDS011;40266;52.434;17.056;2023-08-30T03:02:25;9.00;;;4.00;;
54368;SDS011;40266;52.434;17.056;2023-08-30T03:05:09;6.60;;;3.90;;
54368;SDS011;40266;52.434;17.056;2023-08-30T03:07:53;7.50;;;3.70;;
54368;SDS011;40266;52.434;17.056;2023-08-30T03:10:37;7.10;;;4.20;;
54368;SDS011;40266;52.434;17.056;2023-08-30T03:13:20;5.20;;;3.70;;
54368;SDS011;40266;52.434;17.056;2023-08-30T03:16:13;7.00;;;4.00;;
54368;SDS011;40266;52.434;17.056;2023-08-30T03:18:58;6.30;;;3.60;;
54368;SDS011;40266;52.434;17.056;2023-08-30T03:21:41;5.90;;;3.90;;
54368;SDS011;40266;52.434;17.056;2023-08-30T03:24:23;9.50;;;3.80;;
54368;SDS011;40266;52.434;17.056;2023-08-30T03:27:06;4.40;;;3.50;;
54368;SDS011;40266;52.434;17.056;2023-08-30T03:29:49;13.50;;;5.40;;
54368;SDS011;40266;52.434;17.056;2023-08-30T03:32:32;14.50;;;6.20;;
54368;SDS011;40266;52.434;17.056;2023-08-30T03:35:16;13.30;;;4.90;;
54368;SDS011;40266;52.434;17.056;2023-08-30T03:37:59;10.40;;;5.20;;
54368;SDS011;40266;52.434;17.056;2023-08-30T03:40:43;13.80;;;6.50;;
54368;SDS011;40266;52.434;17.056;2023-08-30T03:43:25;12.30;;;5.80;;
54368;SDS011;40266;52.434;17.056;2023-08-30T03:46:08;9.30;;;6.00;;
54368;SDS011;40266;52.434;17.056;2023-08-30T03:48:54;11.00;;;5.50;;
54368;SDS011;40266;52.434;17.056;2023-08-30T03:51:37;9.70;;;5.30;;
54368;SDS011;40266;52.434;17.056;2023-08-30T03:54:20;9.50;;;5.50;;
54368;SDS011;40266;52.434;17.056;2023-08-30T03:57:03;9.30;;;5.40;;
54368;SDS011;40266;52.434;17.056;2023-08-30T03:59:46;10.70;;;5.50;;
54368;SDS011;40266;52.434;17.056;2023-08-30T04:02:29;9.10;;;5.00;;
54368;SDS011;40266;52.434;17.056;2023-08-30T04:05:12;9.60;;;4.80;;
54368;SDS011;40266;52.434;17.056;2023-08-30T04:07:55;9.60;;;4.30;;
54368;SDS011;40266;52.434;17.056;2023-08-30T04:10:38;8.30;;;4.30;;
54368;SDS011;40266;52.434;17.056;2023-08-30T04:13:23;9.80;;;4.50;;
54368;SDS011;40266;52.434;17.056;2023-08-30T04:16:05;8.70;;;5.10;;
54368;SDS011;40266;52.434;17.056;2023-08-30T04:18:48;9.00;;;4.30;;
54368;SDS011;40266;52.434;17.056;2023-08-30T04:21:31;10.00;;;3.70;;
54368;SDS011;40266;52.434;17.056;2023-08-30T04:24:14;6.70;;;4.20;;
54368;SDS011;40266;52.434;17.056;2023-08-30T04:26:58;6.60;;;4.40;;
54368;SDS011;40266;52.434;17.056;2023-08-30T04:29:40;7.20;;;4.80;;
54368;SDS011;40266;52.434;17.056;2023-08-30T04:32:27;10.90;;;5.80;;
54368;SDS011;40266;52.434;17.056;2023-08-30T04:35:10;8.00;;;5.00;;
54368;SDS011;40266;52.434;17.056;2023-08-30T04:37:53;9.30;;;5.70;;
54368;SDS011;40266;52.434;17.056;2023-08-30T04:40:36;10.60;;;6.10;;
54368;SDS011;40266;52.434;17.056;2023-08-30T04:43:20;6.70;;;4.50;;
54368;SDS011;40266;52.434;17.056;2023-08-30T04:46:04;5.90;;;3.90;;
54368;SDS011;40266;52.434;17.056;2023-08-30T04:48:48;4.80;;;3.40;;
54368;SDS011;40266;52.434;17.056;2023-08-30T04:51:31;4.30;;;3.30;;
54368;SDS011;40266;52.434;17.056;2023-08-30T04:54:14;11.20;;;5.40;;
54368;SDS011;40266;52.434;17.056;2023-08-30T04:56:57;10.60;;;5.20;;
54368;SDS011;40266;52.434;17.056;2023-08-30T04:59:40;9.30;;;4.90;;
54368;SDS011;40266;52.434;17.056;2023-08-30T05:02:23;8.00;;;4.60;;
54368;SDS011;40266;52.434;17.056;2023-08-30T05:05:16;9.80;;;4.60;;
54368;SDS011;40266;52.434;17.056;2023-08-30T05:07:58;7.00;;;4.40;;
54368;SDS011;40266;52.434;17.056;2023-08-30T05:10:42;5.60;;;3.70;;
54368;SDS011;40266;52.434;17.056;2023-08-30T05:13:25;4.90;;;3.60;;
54368;SDS011;40266;52.434;17.056;2023-08-30T05:16:08;10.40;;;4.90;;
54368;SDS011;40266;52.434;17.056;2023-08-30T05:18:51;10.50;;;4.20;;
54368;SDS011;40266;52.434;17.056;2023-08-30T05:21:34;7.30;;;4.40;;
54368;SDS011;40266;52.434;17.056;2023-08-30T05:24:19;7.70;;;4.60;;
54368;SDS011;40266;52.434;17.056;2023-08-30T05:27:02;10.00;;;5.30;;
54368;SDS011;40266;52.434;17.056;2023-08-30T05:29:53;5.80;;;3.90;;
54368;SDS011;40266;52.434;17.056;2023-08-30T05:32:39;9.80;;;3.30;;
54368;SDS011;40266;52.434;17.056;2023-08-30T05:35:25;5.30;;;3.20;;
54368;SDS011;40266;52.434;17.056;2023-08-30T05:38:27;6.20;;;3.60;;
54368;SDS011;40266;52.434;17.056;2023-08-30T05:41:29;7.40;;;4.30;;
54368;SDS011;40266;52.434;17.056;2023-08-30T05:44:12;7.70;;;4.10;;
54368;SDS011;40266;52.434;17.056;2023-08-30T05:46:55;7.20;;;3.90;;
54368;SDS011;40266;52.434;17.056;2023-08-30T05:49:38;5.00;;;2.80;;
54368;SDS011;40266;52.434;17.056;2023-08-30T05:52:22;3.90;;;2.40;;
54368;SDS011;40266;52.434;17.056;2023-08-30T05:55:05;3.60;;;2.40;;
54368;SDS011;40266;52.434;17.056;2023-08-30T05:57:48;4.20;;;2.20;;
54368;SDS011;40266;52.434;17.056;2023-08-30T06:00:31;4.50;;;2.20;;
54368;SDS011;40266;52.434;17.056;2023-08-30T06:03:14;3.70;;;2.40;;
54368;SDS011;40266;52.434;17.056;2023-08-30T06:05:57;4.00;;;2.80;;
54368;SDS011;40266;52.434;17.056;2023-08-30T06:08:43;3.60;;;2.30;;
54368;SDS011;40266;52.434;17.056;2023-08-30T06:11:26;4.60;;;2.60;;
54368;SDS011;40266;52.434;17.056;2023-08-30T06:14:09;6.90;;;3.10;;
54368;SDS011;40266;52.434;17.056;2023-08-30T06:16:52;3.30;;;2.10;;
54368;SDS011;40266;52.434;17.056;2023-08-30T06:19:35;3.30;;;2.70;;
54368;SDS011;40266;52.434;17.056;2023-08-30T06:22:17;2.30;;;2.10;;
54368;SDS011;40266;52.434;17.056;2023-08-30T06:25:00;3.30;;;2.30;;
54368;SDS011;40266;52.434;17.056;2023-08-30T06:27:55;3.00;;;2.40;;
54368;SDS011;40266;52.434;17.056;2023-08-30T06:30:39;2.50;;;1.80;;
54368;SDS011;40266;52.434;17.056;2023-08-30T06:33:23;7.10;;;3.80;;
54368;SDS011;40266;52.434;17.056;2023-08-30T06:36:06;3.60;;;1.70;;
54368;SDS011;40266;52.434;17.056;2023-08-30T06:38:49;1.70;;;1.60;;
54368;SDS011;40266;52.434;17.056;2023-08-30T06:41:32;2.10;;;1.50;;
54368;SDS011;40266;52.434;17.056;2023-08-30T06:44:15;1.80;;;1.40;;
54368;SDS011;40266;52.434;17.056;2023-08-30T06:46:59;1.70;;;1.10;;
54368;SDS011;40266;52.434;17.056;2023-08-30T06:49:44;1.40;;;1.30;;
54368;SDS011;40266;52.434;17.056;2023-08-30T06:52:26;0.70;;;0.70;;
54368;SDS011;40266;52.434;17.056;2023-08-30T06:55:09;3.60;;;1.30;;
54368;SDS011;40266;52.434;17.056;2023-08-30T06:57:52;1.20;;;1.10;;
54368;SDS011;40266;52.434;17.056;2023-08-30T07:00:35;3.20;;;1.10;;
54368;SDS011;40266;52.434;17.056;2023-08-30T07:03:18;2.90;;;1.30;;
54368;SDS011;40266;52.434;17.056;2023-08-30T07:06:02;2.10;;;1.30;;
54368;SDS011;40266;52.434;17.056;2023-08-30T07:08:44;1.90;;;1.20;;
54368;SDS011;40266;52.434;17.056;2023-08-30T07:11:27;1.30;;;1.20;;
54368;SDS011;40266;52.434;17.056;2023-08-30T07:14:16;1.50;;;1.20;;
54368;SDS011;40266;52.434;17.056;2023-08-30T07:16:58;2.90;;;1.20;;
54368;SDS011;40266;52.434;17.056;2023-08-30T07:19:42;3.30;;;1.90;;
54368;SDS011;40266;52.434;17.056;2023-08-30T07:22:24;4.00;;;2.40;;
54368;SDS011;40266;52.434;17.056;2023-08-30T07:25:07;4.90;;;2.50;;
54368;SDS011;40266;52.434;17.056;2023-08-30T07:27:52;2.80;;;1.90;;
54368;SDS011;40266;52.434;17.056;2023-08-30T07:30:35;2.20;;;1.80;;
54368;SDS011;40266;52.434;17.056;2023-08-30T07:33:18;3.30;;;2.00;;
54368;SDS011;40266;52.434;17.056;2023-08-30T07:36:01;3.00;;;2.10;;
54368;SDS011;40266;52.434;17.056;2023-08-30T07:38:45;4.70;;;2.00;;
54368;SDS011;40266;52.434;17.056;2023-08-30T07:41:28;2.40;;;1.80;;
54368;SDS011;40266;52.434;17.056;2023-08-30T07:44:11;2.00;;;1.80;;
54368;SDS011;40266;52.434;17.056;2023-08-30T07:46:54;2.10;;;1.90;;
54368;SDS011;40266;52.434;17.056;2023-08-30T07:49:37;1.70;;;1.60;;
54368;SDS011;40266;52.434;17.056;2023-08-30T07:52:20;2.90;;;1.70;;
54368;SDS011;40266;52.434;17.056;2023-08-30T07:58:06;2.10;;;1.90;;
54368;SDS011;40266;52.434;17.056;2023-08-30T08:00:51;2.20;;;1.60;;
54368;SDS011;40266;52.434;17.056;2023-08-30T08:03:35;1.80;;;1.70;;
54368;SDS011;40266;52.434;17.056;2023-08-30T08:06:22;3.30;;;1.70;;
54368;SDS011;40266;52.434;17.056;2023-08-30T08:09:05;2.00;;;1.80;;
54368;SDS011;40266;52.434;17.056;2023-08-30T08:11:50;1.50;;;1.40;;
54368;SDS011;40266;52.434;17.056;2023-08-30T08:14:33;3.40;;;1.50;;
54368;SDS011;40266;52.434;17.056;2023-08-30T08:17:17;2.10;;;1.80;;
54368;SDS011;40266;52.434;17.056;2023-08-30T08:19:59;1.70;;;1.60;;
54368;SDS011;40266;52.434;17.056;2023-08-30T08:22:42;5.90;;;2.10;;
54368;SDS011;40266;52.434;17.056;2023-08-30T08:25:25;2.50;;;1.20;;
54368;SDS011;40266;52.434;17.056;2023-08-30T08:28:08;1.40;;;1.30;;
54368;SDS011;40266;52.434;17.056;2023-08-30T08:30:52;3.30;;;1.10;;
54368;SDS011;40266;52.434;17.056;2023-08-30T08:33:35;1.50;;;1.40;;
54368;SDS011;40266;52.434;17.056;2023-08-30T08:36:19;1.60;;;1.50;;
54368;SDS011;40266;52.434;17.056;2023-08-30T08:39:02;1.60;;;1.50;;
54368;SDS011;40266;52.434;17.056;2023-08-30T08:41:46;2.20;;;2.00;;
54368;SDS011;40266;52.434;17.056;2023-08-30T08:44:31;5.10;;;2.20;;
54368;SDS011;40266;52.434;17.056;2023-08-30T08:47:15;2.30;;;1.40;;
54368;SDS011;40266;52.434;17.056;2023-08-30T08:49:59;3.00;;;1.80;;
54368;SDS011;40266;52.434;17.056;2023-08-30T08:52:43;2.70;;;2.20;;
54368;SDS011;40266;52.434;17.056;2023-08-30T08:55:32;3.80;;;1.90;;
54368;SDS011;40266;52.434;17.056;2023-08-30T08:58:17;2.00;;;1.80;;
54368;SDS011;40266;52.434;17.056;2023-08-30T09:01:00;2.00;;;1.80;;
54368;SDS011;40266;52.434;17.056;2023-08-30T09:03:43;3.10;;;2.00;;
54368;SDS011;40266;52.434;17.056;2023-08-30T09:06:26;2.10;;;1.90;;
54368;SDS011;40266;52.434;17.056;2023-08-30T09:09:11;3.40;;;2.30;;
54368;SDS011;40266;52.434;17.056;2023-08-30T09:11:54;2.20;;;1.90;;
54368;SDS011;40266;52.434;17.056;2023-08-30T09:14:38;5.20;;;2.40;;
54368;SDS011;40266;52.434;17.056;2023-08-30T09:17:21;3.00;;;1.90;;
54368;SDS011;40266;52.434;17.056;2023-08-30T09:20:05;3.10;;;2.00;;
54368;SDS011;40266;52.434;17.056;2023-08-30T09:22:52;1.70;;;1.60;;
54368;SDS011;40266;52.434;17.056;2023-08-30T09:25:35;3.90;;;1.40;;
54368;SDS011;40266;52.434;17.056;2023-08-30T09:28:18;2.60;;;1.70;;
54368;SDS011;40266;52.434;17.056;2023-08-30T09:31:01;1.80;;;1.50;;
54368;SDS011;40266;52.434;17.056;2023-08-30T09:34:04;3.70;;;1.60;;
54368;SDS011;40266;52.434;17.056;2023-08-30T09:36:47;1.30;;;1.20;;
54368;SDS011;40266;52.434;17.056;2023-08-30T09:39:32;2.30;;;1.60;;
54368;SDS011;40266;52.434;17.056;2023-08-30T09:42:16;2.00;;;1.50;;
54368;SDS011;40266;52.434;17.056;2023-08-30T09:45:04;2.90;;;1.60;;
54368;SDS011;40266;52.434;17.056;2023-08-30T09:47:50;2.50;;;1.70;;
54368;SDS011;40266;52.434;17.056;2023-08-30T09:50:33;2.00;;;1.30;;
54368;SDS011;40266;52.434;17.056;2023-08-30T09:53:17;1.80;;;1.60;;
54368;SDS011;40266;52.434;17.056;2023-08-30T09:56:03;2.60;;;1.60;;
54368;SDS011;40266;52.434;17.056;2023-08-30T09:58:47;2.20;;;1.40;;
54368;SDS011;40266;52.434;17.056;2023-08-30T10:01:31;2.60;;;1.00;;
54368;SDS011;40266;52.434;17.056;2023-08-30T10:04:14;2.70;;;1.10;;
54368;SDS011;40266;52.434;17.056;2023-08-30T10:06:58;3.40;;;1.10;;
54368;SDS011;40266;52.434;17.056;2023-08-30T10:09:41;3.80;;;1.00;;
54368;SDS011;40266;52.434;17.056;2023-08-30T10:12:44;1.90;;;1.00;;
54368;SDS011;40266;52.434;17.056;2023-08-30T10:15:43;1.80;;;1.10;;
54368;SDS011;40266;52.434;17.056;2023-08-30T10:18:29;2.30;;;1.20;;
54368;SDS011;40266;52.434;17.056;2023-08-30T10:21:17;3.90;;;1.00;;
54368;SDS011;40266;52.434;17.056;2023-08-30T10:24:01;2.20;;;1.30;;
54368;SDS011;40266;52.434;17.056;2023-08-30T10:27:00;1.50;;;0.90;;
54368;SDS011;40266;52.434;17.056;2023-08-30T10:29:46;3.60;;;1.20;;
54368;SDS011;40266;52.434;17.056;2023-08-30T10:32:32;1.70;;;0.80;;
54368;SDS011;40266;52.434;17.056;2023-08-30T10:35:22;1.00;;;1.00;;
54368;SDS011;40266;52.434;17.056;2023-08-30T10:38:05;2.20;;;1.20;;
54368;SDS011;40266;52.434;17.056;2023-08-30T10:40:47;2.90;;;2.40;;
54368;SDS011;40266;52.434;17.056;2023-08-30T10:43:31;2.70;;;1.00;;
54368;SDS011;40266;52.434;17.056;2023-08-30T10:46:17;2.70;;;1.10;;
54368;SDS011;40266;52.434;17.056;2023-08-30T10:49:11;2.40;;;0.80;;
54368;SDS011;40266;52.434;17.056;2023-08-30T10:51:58;2.70;;;1.00;;
54368;SDS011;40266;52.434;17.056;2023-08-30T10:54:43;2.00;;;0.80;;
54368;SDS011;40266;52.434;17.056;2023-08-30T10:57:26;3.90;;;0.90;;
54368;SDS011;40266;52.434;17.056;2023-08-30T11:00:11;3.30;;;1.00;;
54368;SDS011;40266;52.434;17.056;2023-08-30T11:03:03;1.20;;;0.70;;
54368;SDS011;40266;52.434;17.056;2023-08-30T11:05:47;0.70;;;0.60;;
54368;SDS011;40266;52.434;17.056;2023-08-30T11:08:32;1.80;;;0.80;;
54368;SDS011;40266;52.434;17.056;2023-08-30T11:11:15;1.40;;;0.70;;
54368;SDS011;40266;52.434;17.056;2023-08-30T11:14:09;2.50;;;0.60;;
54368;SDS011;40266;52.434;17.056;2023-08-30T11:16:52;1.50;;;0.80;;
54368;SDS011;40266;52.434;17.056;2023-08-30T11:19:35;1.10;;;1.00;;
54368;SDS011;40266;52.434;17.056;2023-08-30T11:22:18;1.20;;;1.00;;
54368;SDS011;40266;52.434;17.056;2023-08-30T11:25:01;0.90;;;0.70;;
54368;SDS011;40266;52.434;17.056;2023-08-30T11:27:44;1.70;;;0.90;;
54368;SDS011;40266;52.434;17.056;2023-08-30T11:30:28;1.40;;;0.70;;
54368;SDS011;40266;52.434;17.056;2023-08-30T11:33:13;0.90;;;0.80;;
54368;SDS011;40266;52.434;17.056;2023-08-30T11:36:00;1.50;;;0.60;;
54368;SDS011;40266;52.434;17.056;2023-08-30T11:38:44;3.20;;;0.80;;
54368;SDS011;40266;52.434;17.056;2023-08-30T11:41:27;3.20;;;1.20;;
54368;SDS011;40266;52.434;17.056;2023-08-30T11:44:10;2.60;;;1.20;;
54368;SDS011;40266;52.434;17.056;2023-08-30T11:46:57;2.50;;;0.80;;
54368;SDS011;40266;52.434;17.056;2023-08-30T11:49:41;2.60;;;0.90;;
54368;SDS011;40266;52.434;17.056;2023-08-30T11:52:24;1.70;;;0.80;;
54368;SDS011;40266;52.434;17.056;2023-08-30T11:55:08;2.20;;;0.90;;
54368;SDS011;40266;52.434;17.056;2023-08-30T11:57:51;0.90;;;0.80;;
54368;SDS011;40266;52.434;17.056;2023-08-30T12:00:34;1.80;;;0.80;;
54368;SDS011;40266;52.434;17.056;2023-08-30T12:03:18;2.00;;;0.90;;
54368;SDS011;40266;52.434;17.056;2023-08-30T12:06:01;2.40;;;1.00;;
54368;SDS011;40266;52.434;17.056;2023-08-30T12:08:44;3.70;;;1.10;;
54368;SDS011;40266;52.434;17.056;2023-08-30T12:11:27;1.00;;;0.80;;
54368;SDS011;40266;52.434;17.056;2023-08-30T12:14:14;1.10;;;0.90;;
54368;SDS011;40266;52.434;17.056;2023-08-30T12:16:59;0.90;;;0.80;;
54368;SDS011;40266;52.434;17.056;2023-08-30T12:19:42;0.80;;;0.60;;
54368;SDS011;40266;52.434;17.056;2023-08-30T12:22:37;1.10;;;1.00;;
54368;SDS011;40266;52.434;17.056;2023-08-30T12:25:22;2.80;;;1.20;;
54368;SDS011;40266;52.434;17.056;2023-08-30T12:28:09;2.40;;;1.00;;
54368;SDS011;40266;52.434;17.056;2023-08-30T12:30:52;2.10;;;1.00;;
54368;SDS011;40266;52.434;17.056;2023-08-30T12:33:35;1.20;;;1.10;;
54368;SDS011;40266;52.434;17.056;2023-08-30T12:36:20;1.50;;;1.00;;
54368;SDS011;40266;52.434;17.056;2023-08-30T12:39:03;1.30;;;1.10;;
54368;SDS011;40266;52.434;17.056;2023-08-30T12:41:47;2.30;;;0.80;;
54368;SDS011;40266;52.434;17.056;2023-08-30T12:44:30;1.80;;;0.70;;
54368;SDS011;40266;52.434;17.056;2023-08-30T12:47:12;0.70;;;0.70;;
54368;SDS011;40266;52.434;17.056;2023-08-30T12:49:56;1.10;;;0.80;;
54368;SDS011;40266;52.434;17.056;2023-08-30T12:52:39;0.70;;;0.70;;
54368;SDS011;40266;52.434;17.056;2023-08-30T12:55:22;1.30;;;0.70;;
54368;SDS011;40266;52.434;17.056;2023-08-30T12:58:05;1.90;;;0.70;;
54368;SDS011;40266;52.434;17.056;2023-08-30T13:00:49;0.50;;;0.50;;
54368;SDS011;40266;52.434;17.056;2023-08-30T13:03:32;0.70;;;0.60;;
54368;SDS011;40266;52.434;17.056;2023-08-30T13:06:15;0.60;;;0.40;;
54368;SDS011;40266;52.434;17.056;2023-08-30T13:08:58;3.00;;;0.60;;
54368;SDS011;40266;52.434;17.056;2023-08-30T13:11:41;1.10;;;0.60;;
54368;SDS011;40266;52.434;17.056;2023-08-30T13:14:27;0.70;;;0.70;;
54368;SDS011;40266;52.434;17.056;2023-08-30T13:17:10;1.40;;;0.80;;
54368;SDS011;40266;52.434;17.056;2023-08-30T13:19:53;2.70;;;1.30;;
54368;SDS011;40266;52.434;17.056;2023-08-30T13:22:36;2.40;;;0.90;;
54368;SDS011;40266;52.434;17.056;2023-08-30T13:25:19;1.30;;;0.80;;
54368;SDS011;40266;52.434;17.056;2023-08-30T13:28:02;2.90;;;1.00;;
54368;SDS011;40266;52.434;17.056;2023-08-30T13:30:46;1.90;;;0.90;;
54368;SDS011;40266;52.434;17.056;2023-08-30T13:33:29;1.60;;;1.10;;
54368;SDS011;40266;52.434;17.056;2023-08-30T13:36:12;2.10;;;1.10;;
54368;SDS011;40266;52.434;17.056;2023-08-30T13:38:55;1.40;;;1.20;;
54368;SDS011;40266;52.434;17.056;2023-08-30T13:41:39;1.20;;;1.00;;
54368;SDS011;40266;52.434;17.056;2023-08-30T13:44:21;2.70;;;0.90;;
54368;SDS011;40266;52.434;17.056;2023-08-30T13:47:05;2.20;;;1.00;;
54368;SDS011;40266;52.434;17.056;2023-08-30T13:49:48;3.80;;;1.00;;
54368;SDS011;40266;52.434;17.056;2023-08-30T13:52:31;3.40;;;1.00;;
54368;SDS011;40266;52.434;17.056;2023-08-30T13:55:16;3.80;;;1.00;;
54368;SDS011;40266;52.434;17.056;2023-08-30T13:57:59;1.70;;;0.90;;
54368;SDS011;40266;52.434;17.056;2023-08-30T14:00:42;3.00;;;1.40;;
54368;SDS011;40266;52.434;17.056;2023-08-30T14:03:26;1.80;;;1.20;;
54368;SDS011;40266;52.434;17.056;2023-08-30T14:06:09;1.60;;;1.10;;
54368;SDS011;40266;52.434;17.056;2023-08-30T14:08:52;2.00;;;1.20;;
54368;SDS011;40266;52.434;17.056;2023-08-30T14:11:35;1.20;;;1.10;;
54368;SDS011;40266;52.434;17.056;2023-08-30T14:14:20;1.20;;;0.90;;
54368;SDS011;40266;52.434;17.056;2023-08-30T14:17:04;1.90;;;0.70;;
54368;SDS011;40266;52.434;17.056;2023-08-30T14:19:46;1.50;;;0.60;;
54368;SDS011;40266;52.434;17.056;2023-08-30T14:22:30;3.90;;;1.20;;
54368;SDS011;40266;52.434;17.056;2023-08-30T14:25:13;1.00;;;0.80;;
54368;SDS011;40266;52.434;17.056;2023-08-30T14:27:56;1.60;;;0.60;;
54368;SDS011;40266;52.434;17.056;2023-08-30T14:30:39;1.10;;;0.70;;
54368;SDS011;40266;52.434;17.056;2023-08-30T14:33:23;1.80;;;0.70;;
54368;SDS011;40266;52.434;17.056;2023-08-30T14:36:09;1.40;;;1.00;;
54368;SDS011;40266;52.434;17.056;2023-08-30T14:38:53;1.30;;;0.90;;
54368;SDS011;40266;52.434;17.056;2023-08-30T14:41:36;3.40;;;1.10;;
54368;SDS011;40266;52.434;17.056;2023-08-30T14:44:19;0.80;;;0.70;;
54368;SDS011;40266;52.434;17.056;2023-08-30T14:47:02;1.10;;;0.90;;
54368;SDS011;40266;52.434;17.056;2023-08-30T14:49:46;0.80;;;0.80;;
54368;SDS011;40266;52.434;17.056;2023-08-30T14:52:29;0.80;;;0.80;;
54368;SDS011;40266;52.434;17.056;2023-08-30T14:55:12;0.90;;;0.60;;
54368;SDS011;40266;52.434;17.056;2023-08-30T14:57:55;1.50;;;1.00;;
54368;SDS011;40266;52.434;17.056;2023-08-30T15:00:39;2.90;;;1.00;;
54368;SDS011;40266;52.434;17.056;2023-08-30T15:03:25;4.20;;;0.90;;
54368;SDS011;40266;52.434;17.056;2023-08-30T15:06:08;2.70;;;0.80;;
54368;SDS011;40266;52.434;17.056;2023-08-30T15:08:51;3.10;;;0.90;;
54368;SDS011;40266;52.434;17.056;2023-08-30T15:11:34;1.50;;;0.70;;
54368;SDS011;40266;52.434;17.056;2023-08-30T15:14:17;2.20;;;1.40;;
54368;SDS011;40266;52.434;17.056;2023-08-30T15:17:00;1.10;;;0.90;;
54368;SDS011;40266;52.434;17.056;2023-08-30T15:19:44;3.90;;;1.50;;
54368;SDS011;40266;52.434;17.056;2023-08-30T15:22:27;1.40;;;1.30;;
54368;SDS011;40266;52.434;17.056;2023-08-30T15:25:11;5.00;;;1.60;;
54368;SDS011;40266;52.434;17.056;2023-08-30T15:27:54;2.80;;;1.30;;
54368;SDS011;40266;52.434;17.056;2023-08-30T15:30:38;2.30;;;1.30;;
54368;SDS011;40266;52.434;17.056;2023-08-30T15:33:24;1.20;;;1.10;;
54368;SDS011;40266;52.434;17.056;2023-08-30T15:36:08;6.10;;;1.80;;
54368;SDS011;40266;52.434;17.056;2023-08-30T15:38:51;2.10;;;1.30;;
54368;SDS011;40266;52.434;17.056;2023-08-30T15:41:34;2.60;;;1.60;;
54368;SDS011;40266;52.434;17.056;2023-08-30T15:44:17;2.70;;;1.70;;
54368;SDS011;40266;52.434;17.056;2023-08-30T15:47:01;2.40;;;1.60;;
54368;SDS011;40266;52.434;17.056;2023-08-30T15:49:44;3.40;;;2.20;;
54368;SDS011;40266;52.434;17.056;2023-08-30T15:52:27;3.50;;;2.70;;
54368;SDS011;40266;52.434;17.056;2023-08-30T15:55:12;3.40;;;2.10;;
54368;SDS011;40266;52.434;17.056;2023-08-30T15:57:56;4.10;;;2.20;;
54368;SDS011;40266;52.434;17.056;2023-08-30T16:00:39;5.40;;;2.00;;
54368;SDS011;40266;52.434;17.056;2023-08-30T16:03:23;4.90;;;1.70;;
54368;SDS011;40266;52.434;17.056;2023-08-30T16:06:08;3.80;;;2.80;;
54368;SDS011;40266;52.434;17.056;2023-08-30T16:08:50;4.10;;;3.10;;
54368;SDS011;40266;52.434;17.056;2023-08-30T16:11:33;6.00;;;4.00;;
54368;SDS011;40266;52.434;17.056;2023-08-30T16:14:16;11.70;;;6.80;;
54368;SDS011;40266;52.434;17.056;2023-08-30T16:16:59;10.60;;;4.40;;
54368;SDS011;40266;52.434;17.056;2023-08-30T16:19:42;6.10;;;3.90;;
54368;SDS011;40266;52.434;17.056;2023-08-30T16:22:25;7.50;;;4.20;;
54368;SDS011;40266;52.434;17.056;2023-08-30T16:25:08;6.20;;;3.90;;